createdAt,value
2023-02-15T00:02:17.779Z,39.18
2023-02-15T00:04:48.644Z,43.35
2023-02-15T00:07:19.793Z,35.38
2023-02-15T00:09:48.054Z,28.80
2023-02-15T00:12:16.643Z,23.75
2023-02-15T00:14:45.113Z,38.63
2023-02-15T00:17:13.326Z,40.63
2023-02-15T00:19:41.543Z,37.13
2023-02-15T00:22:09.923Z,45.20
2023-02-15T00:24:38.152Z,36.42
2023-02-15T00:27:06.376Z,35.78
2023-02-15T00:29:34.590Z,39.13
2023-02-15T00:32:02.800Z,39.78
2023-02-15T00:34:31.081Z,40.35
2023-02-15T00:36:59.528Z,39.25
2023-02-15T00:39:28.050Z,44.20
2023-02-15T00:41:56.262Z,40.63
2023-02-15T00:44:24.498Z,41.80
2023-02-15T00:46:52.697Z,39.85
2023-02-15T00:49:20.921Z,40.20
2023-02-15T00:51:49.165Z,27.10
2023-02-15T00:54:17.360Z,30.35
2023-02-15T00:56:45.571Z,38.23
2023-02-15T00:59:13.780Z,36.88
2023-02-15T01:01:42.016Z,38.00
2023-02-15T01:04:10.284Z,13.32
2023-02-15T01:06:38.555Z,30.77
2023-02-15T01:09:06.818Z,30.45
2023-02-15T01:11:35.046Z,48.68
2023-02-15T01:14:04.017Z,27.45
2023-02-15T01:16:32.256Z,30.68
2023-02-15T01:19:00.480Z,32.15
2023-02-15T01:21:28.767Z,40.65
2023-02-15T01:23:56.985Z,43.73
2023-02-15T01:26:25.198Z,41.10
2023-02-15T01:28:53.694Z,30.37
2023-02-15T01:31:22.523Z,36.42
2023-02-15T01:33:50.873Z,34.78
2023-02-15T01:36:19.117Z,17.77
2023-02-15T01:38:47.494Z,43.58
2023-02-15T01:41:17.321Z,39.98
2023-02-15T01:43:47.076Z,46.50
2023-02-15T01:46:16.868Z,44.83
2023-02-15T01:48:52.490Z,44.67
2023-02-15T01:51:23.025Z,37.08
2023-02-15T01:53:52.804Z,38.88
2023-02-15T01:56:22.580Z,44.53
2023-02-15T01:58:53.225Z,40.80
2023-02-15T02:01:21.538Z,43.40
2023-02-15T02:04:07.896Z,40.95
2023-02-15T02:06:37.424Z,41.18
2023-02-15T02:09:05.715Z,34.38
2023-02-15T02:11:34.223Z,46.33
2023-02-15T02:14:02.487Z,46.35
2023-02-15T02:16:35.286Z,51.60
2023-02-15T02:19:11.040Z,44.10
2023-02-15T02:21:46.627Z,47.70
2023-02-15T02:24:31.180Z,45.80
2023-02-15T02:27:00.939Z,43.50
2023-02-15T02:29:30.705Z,47.45
2023-02-15T02:32:04.099Z,51.68
2023-02-15T02:34:33.903Z,47.53
2023-02-15T02:37:18.464Z,38.48
2023-02-15T02:39:48.227Z,45.73
2023-02-15T02:42:33.026Z,46.37
2023-02-15T02:45:05.538Z,47.62
2023-02-15T02:50:02.321Z,41.40
2023-02-15T02:52:44.067Z,44.65
2023-02-15T02:55:30.060Z,44.20
2023-02-15T02:58:02.705Z,43.40
2023-02-15T03:00:32.472Z,45.08
2023-02-15T03:03:03.909Z,44.45
2023-02-15T03:05:32.559Z,44.95
2023-02-15T03:08:02.982Z,47.73
2023-02-15T03:10:31.174Z,45.17
2023-02-15T03:12:59.486Z,38.45
2023-02-15T03:15:30.902Z,44.85
2023-02-15T03:18:02.301Z,24.67
2023-02-15T03:20:32.229Z,31.50
2023-02-15T03:23:01.976Z,38.30
2023-02-15T03:25:37.797Z,37.75
2023-02-15T03:28:10.559Z,40.95
2023-02-15T03:30:40.330Z,39.55
2023-02-15T03:33:08.928Z,38.15
2023-02-15T03:35:57.767Z,35.98
2023-02-15T03:38:27.544Z,21.55
2023-02-15T03:41:11.825Z,28.52
2023-02-15T03:43:41.556Z,39.15
2023-02-15T03:46:11.399Z,42.93
2023-02-15T03:48:41.107Z,32.55
2023-02-15T03:51:32.737Z,43.73
2023-02-15T03:54:02.648Z,43.48
2023-02-15T03:56:31.363Z,41.58
2023-02-15T03:59:17.396Z,43.78
2023-02-15T04:01:58.655Z,40.48
2023-02-15T04:04:28.422Z,40.23
2023-02-15T04:06:56.629Z,46.75
2023-02-15T04:09:42.710Z,43.52
2023-02-15T04:12:10.926Z,42.43
2023-02-15T04:14:56.981Z,42.27
2023-02-15T04:17:25.258Z,45.17
2023-02-15T04:20:11.410Z,40.23
2023-02-15T04:22:57.454Z,40.67
2023-02-15T04:25:25.758Z,40.03
2023-02-15T04:27:54.847Z,42.20
2023-02-15T04:30:24.856Z,37.90
2023-02-15T04:32:53.060Z,43.15
2023-02-15T04:35:21.255Z,39.27
2023-02-15T04:37:49.519Z,39.23
2023-02-15T04:40:19.707Z,39.80
2023-02-15T04:42:50.889Z,37.15
2023-02-15T04:45:19.380Z,38.40
2023-02-15T04:47:47.670Z,36.35
2023-02-15T04:50:16.016Z,31.37
2023-02-15T04:52:44.258Z,33.28
2023-02-15T04:55:12.492Z,35.23
2023-02-15T04:57:40.744Z,40.63
2023-02-15T05:00:09.833Z,31.20
2023-02-15T05:02:38.533Z,25.65
2023-02-15T05:05:06.954Z,42.17
2023-02-15T05:07:35.184Z,34.15
2023-02-15T05:10:03.420Z,31.00
2023-02-15T05:12:31.759Z,35.40
2023-02-15T05:14:59.962Z,21.62
2023-02-15T05:17:28.154Z,33.55
2023-02-15T05:19:56.368Z,33.75
2023-02-15T05:22:24.647Z,33.33
2023-02-15T05:25:10.758Z,26.82
2023-02-15T05:27:57.062Z,30.00
2023-02-15T05:30:25.455Z,34.75
2023-02-15T05:32:53.735Z,18.02
2023-02-15T05:35:22.006Z,20.00
2023-02-15T05:37:50.246Z,27.15
2023-02-15T05:40:18.539Z,41.30
2023-02-15T05:42:46.741Z,38.95
2023-02-15T05:45:14.963Z,26.77
2023-02-15T05:47:43.358Z,32.75
2023-02-15T05:50:12.250Z,27.15
2023-02-15T05:52:40.459Z,20.43
2023-02-15T05:55:09.589Z,41.08
2023-02-15T05:57:37.974Z,36.98
2023-02-15T06:00:06.639Z,45.55
2023-02-15T06:02:35.850Z,31.33
2023-02-15T06:05:04.802Z,34.27
2023-02-15T06:07:33.092Z,24.45
2023-02-15T06:10:01.365Z,39.10
2023-02-15T06:12:29.589Z,31.87
2023-02-15T06:14:57.809Z,32.38
2023-02-15T06:17:26.085Z,32.13
2023-02-15T06:19:54.293Z,35.83
2023-02-15T06:22:22.531Z,37.30
2023-02-15T06:24:50.840Z,39.73
2023-02-15T06:27:19.119Z,30.32
2023-02-15T06:29:47.332Z,33.28
2023-02-15T06:32:15.643Z,34.35
2023-02-15T06:34:43.883Z,37.13
2023-02-15T06:37:12.494Z,34.92
2023-02-15T06:39:40.726Z,37.90
2023-02-15T06:42:08.948Z,28.85
2023-02-15T06:44:37.162Z,31.82
2023-02-15T06:47:05.401Z,24.63
2023-02-15T06:49:33.631Z,41.88
2023-02-15T06:52:02.002Z,32.80
2023-02-15T06:54:30.178Z,34.33
2023-02-15T06:56:58.463Z,29.45
2023-02-15T06:59:26.696Z,27.85
2023-02-15T07:01:54.945Z,23.38
2023-02-15T07:04:23.257Z,29.25
2023-02-15T07:06:53.782Z,20.90
2023-02-15T07:09:21.363Z,25.62
2023-02-15T07:12:07.135Z,25.30
2023-02-15T07:14:35.419Z,27.13
2023-02-15T07:17:03.639Z,22.37
2023-02-15T07:19:31.850Z,26.62
2023-02-15T07:22:00.127Z,25.20
2023-02-15T07:24:28.399Z,13.43
2023-02-15T07:26:58.290Z,21.00
2023-02-15T07:29:26.494Z,15.40
2023-02-15T07:31:54.735Z,19.95
2023-02-15T07:34:23.023Z,22.80
2023-02-15T07:36:52.712Z,28.25
2023-02-15T07:39:21.075Z,23.60
2023-02-15T07:41:49.276Z,25.12
2023-02-15T07:44:17.509Z,30.57
2023-02-15T07:46:45.768Z,29.12
2023-02-15T07:49:15.376Z,27.17
2023-02-15T07:51:43.912Z,23.40
2023-02-15T07:54:12.461Z,22.42
2023-02-15T07:56:41.008Z,21.93
2023-02-15T07:59:09.985Z,26.00
2023-02-15T08:01:40.082Z,20.50
2023-02-15T08:04:11.824Z,25.43
2023-02-15T08:06:40.618Z,15.53
2023-02-15T08:09:11.489Z,16.10
2023-02-15T08:11:43.594Z,22.70
2023-02-15T08:14:21.133Z,22.60
2023-02-15T08:16:53.261Z,30.02
2023-02-15T08:19:22.581Z,23.60
2023-02-15T08:21:53.246Z,21.15
2023-02-15T08:24:23.730Z,26.62
2023-02-15T08:26:53.213Z,24.40
2023-02-15T08:29:24.521Z,21.62
2023-02-15T08:32:06.036Z,20.55
2023-02-15T08:34:37.493Z,29.07
2023-02-15T08:37:06.923Z,28.20
2023-02-15T08:39:35.655Z,25.20
2023-02-15T08:42:03.934Z,24.40
2023-02-15T08:44:32.173Z,28.07
2023-02-15T08:47:02.120Z,27.87
2023-02-15T08:49:30.312Z,20.52
2023-02-15T08:51:58.559Z,17.12
2023-02-15T08:54:26.883Z,18.80
2023-02-15T08:56:55.201Z,12.85
2023-02-15T08:59:24.987Z,20.35
2023-02-15T09:01:53.528Z,25.45
2023-02-15T09:04:23.398Z,17.77
2023-02-15T09:06:51.922Z,22.98
2023-02-15T09:09:20.445Z,24.63
2023-02-15T09:11:50.846Z,21.12
2023-02-15T09:14:22.252Z,24.67
2023-02-15T09:16:52.507Z,20.40
2023-02-15T09:19:21.575Z,14.28
2023-02-15T09:21:49.873Z,19.35
2023-02-15T09:24:18.593Z,27.90
2023-02-15T09:26:47.866Z,21.75
2023-02-15T09:29:16.258Z,14.85
2023-02-15T09:31:46.056Z,22.67
2023-02-15T09:34:15.566Z,22.27
2023-02-15T09:36:43.775Z,20.43
2023-02-15T09:39:13.586Z,21.45
2023-02-15T09:41:55.419Z,23.50
2023-02-15T09:44:37.278Z,25.05
2023-02-15T09:47:23.234Z,22.50
2023-02-15T09:49:53.055Z,26.30
2023-02-15T09:52:39.405Z,21.55
2023-02-15T09:55:09.145Z,21.55
2023-02-15T09:57:38.888Z,11.78
2023-02-15T10:00:17.569Z,20.32
2023-02-15T10:02:53.246Z,19.98
2023-02-15T10:05:25.665Z,16.45
2023-02-15T10:08:13.320Z,15.50
2023-02-15T10:10:43.231Z,15.23
2023-02-15T10:13:12.988Z,18.52
2023-02-15T10:15:58.097Z,18.12
2023-02-15T10:18:30.804Z,14.65
2023-02-15T10:23:44.900Z,23.83
2023-02-15T10:26:23.676Z,18.37
2023-02-15T10:28:53.513Z,20.27
2023-02-15T10:31:39.787Z,20.30
2023-02-15T10:34:12.363Z,15.80
2023-02-15T10:36:42.172Z,10.72
2023-02-15T10:39:30.045Z,13.93
2023-02-15T10:41:59.789Z,14.65
2023-02-15T10:44:29.544Z,20.00
2023-02-15T10:47:00.982Z,14.75
2023-02-15T10:49:33.557Z,12.82
2023-02-15T10:52:09.119Z,19.12
2023-02-15T10:54:44.926Z,15.98
2023-02-15T10:57:20.686Z,22.42
2023-02-15T11:00:00.414Z,19.98
2023-02-15T11:02:48.318Z,18.07
2023-02-15T11:05:29.877Z,21.40
2023-02-15T11:08:00.311Z,18.35
2023-02-15T11:10:36.097Z,16.10
2023-02-15T11:13:05.859Z,19.30
2023-02-15T11:15:38.831Z,16.93
2023-02-15T11:18:23.602Z,21.25
2023-02-15T11:20:53.379Z,18.67
2023-02-15T11:23:22.337Z,23.50
2023-02-15T11:25:54.990Z,20.32
2023-02-15T11:30:53.109Z,20.62
2023-02-15T11:33:23.104Z,19.77
2023-02-15T11:35:52.915Z,22.05
2023-02-15T11:38:22.708Z,20.05
2023-02-15T11:40:52.456Z,16.97
2023-02-15T11:43:25.173Z,13.28
2023-02-15T11:48:20.892Z,19.85
2023-02-15T11:50:49.135Z,16.00
2023-02-15T11:53:18.796Z,19.23
2023-02-15T11:55:47.907Z,19.45
2023-02-15T11:58:34.758Z,19.73
2023-02-15T12:01:13.321Z,12.80
2023-02-15T12:03:45.721Z,21.48
2023-02-15T12:06:15.092Z,21.45
2023-02-15T12:08:44.853Z,14.85
2023-02-15T12:11:14.808Z,19.95
2023-02-15T12:13:57.148Z,19.65
2023-02-15T12:16:26.190Z,16.23
2023-02-15T12:18:55.978Z,19.85
2023-02-15T12:21:31.128Z,18.35
2023-02-15T12:24:00.843Z,8.38
2023-02-15T12:26:33.768Z,23.10
2023-02-15T12:29:09.431Z,21.40
2023-02-15T12:31:45.266Z,19.07
2023-02-15T12:34:15.092Z,18.98
2023-02-15T12:36:55.227Z,16.15
2023-02-15T12:39:26.032Z,21.80
2023-02-15T12:41:58.827Z,18.02
2023-02-15T12:44:29.800Z,16.77
2023-02-15T12:46:59.756Z,17.60
2023-02-15T12:49:29.056Z,13.68
2023-02-15T12:51:59.294Z,19.25
2023-02-15T12:54:32.211Z,19.45
2023-02-15T12:57:00.816Z,18.15
2023-02-15T12:59:29.019Z,19.60
2023-02-15T13:01:57.334Z,17.92
2023-02-15T13:04:27.228Z,15.10
2023-02-15T13:06:56.988Z,18.52
2023-02-15T13:09:30.854Z,15.00
2023-02-15T13:12:00.617Z,23.92
2023-02-15T13:14:35.794Z,23.73
2023-02-15T13:17:07.779Z,16.90
2023-02-15T13:19:36.696Z,21.42
2023-02-15T13:22:06.446Z,18.82
2023-02-15T13:24:39.148Z,21.02
2023-02-15T13:29:37.968Z,16.23
2023-02-15T13:32:07.763Z,17.87
2023-02-15T13:34:40.191Z,15.45
2023-02-15T13:37:15.996Z,22.90
2023-02-15T13:39:57.793Z,21.17
2023-02-15T13:42:44.010Z,15.08
2023-02-15T13:45:16.431Z,17.62
2023-02-15T13:47:49.057Z,18.55
2023-02-15T13:50:18.867Z,19.95
2023-02-15T13:52:51.609Z,19.10
2023-02-15T13:57:52.533Z,12.53
2023-02-15T14:00:22.246Z,23.07
2023-02-15T14:02:52.008Z,17.42
2023-02-15T14:05:27.299Z,25.02
2023-02-15T14:07:57.068Z,23.38
2023-02-15T14:10:29.449Z,29.50
2023-02-15T14:13:08.263Z,23.57
2023-02-15T14:15:46.979Z,19.02
2023-02-15T14:18:19.643Z,18.75
2023-02-15T14:23:24.684Z,18.07
2023-02-15T14:25:57.200Z,18.52
2023-02-15T14:28:39.159Z,18.73
2023-02-15T14:31:09.073Z,25.60
2023-02-15T14:33:43.584Z,21.20
2023-02-15T14:36:13.425Z,22.62
2023-02-15T14:38:59.971Z,20.30
2023-02-15T14:41:33.209Z,18.82
2023-02-15T14:44:11.726Z,19.25
2023-02-15T14:46:50.429Z,23.98
2023-02-15T14:49:25.998Z,19.42
2023-02-15T14:52:02.089Z,18.35
2023-02-15T14:54:33.576Z,21.12
2023-02-15T14:57:03.398Z,17.82
2023-02-15T14:59:39.808Z,19.52
2023-02-15T15:02:09.713Z,21.93
2023-02-15T15:04:45.194Z,18.90
2023-02-15T15:07:20.951Z,19.92
2023-02-15T15:10:02.962Z,18.40
2023-02-15T15:12:36.394Z,19.65
2023-02-15T15:15:05.446Z,23.05
2023-02-15T15:17:36.849Z,20.82
2023-02-15T15:20:08.247Z,20.30
2023-02-15T15:22:37.451Z,20.95
2023-02-15T15:25:07.175Z,19.10
2023-02-15T15:27:39.891Z,20.95
2023-02-15T15:32:36.370Z,21.80
2023-02-15T15:35:08.780Z,20.48
2023-02-15T15:37:55.559Z,20.43
2023-02-15T15:40:25.298Z,19.50
2023-02-15T15:42:58.290Z,21.23
2023-02-15T15:46:02.739Z,19.40
2023-02-15T15:48:34.371Z,18.98
2023-02-15T15:51:21.931Z,20.70
2023-02-15T15:53:53.049Z,19.37
2023-02-15T15:56:22.990Z,23.42
2023-02-15T15:58:55.872Z,22.40
2023-02-15T16:01:25.712Z,21.95
2023-02-15T16:03:54.823Z,19.20
2023-02-15T16:06:30.690Z,20.30
2023-02-15T16:08:59.149Z,18.67
2023-02-15T16:11:28.927Z,19.52
2023-02-15T16:14:17.950Z,19.98
2023-02-15T16:16:53.688Z,21.37
2023-02-15T16:19:23.684Z,21.05
2023-02-15T16:21:51.912Z,20.90
2023-02-15T16:24:23.556Z,27.00
2023-02-15T16:26:59.344Z,21.25
2023-02-15T16:29:29.248Z,20.40
2023-02-15T16:32:08.048Z,22.22
2023-02-15T16:34:36.318Z,22.45
2023-02-15T16:37:14.545Z,20.48
2023-02-15T16:39:43.910Z,24.07
2023-02-15T16:42:13.252Z,22.85
2023-02-15T16:44:41.841Z,21.48
2023-02-15T16:47:14.270Z,22.15
2023-02-15T16:49:44.040Z,22.25
2023-02-15T16:52:13.782Z,23.00
2023-02-15T16:54:43.977Z,31.27
2023-02-15T16:57:13.755Z,26.90
2023-02-15T16:59:44.446Z,27.10
2023-02-15T17:02:54.525Z,24.30
2023-02-15T17:05:04.869Z,20.65
2023-02-15T17:07:34.259Z,22.30
2023-02-15T17:10:02.482Z,22.70
2023-02-15T17:12:51.554Z,21.95
2023-02-15T17:15:27.380Z,21.37
2023-02-15T17:17:57.281Z,23.62
2023-02-15T17:20:26.182Z,20.48
2023-02-15T17:22:54.903Z,19.80
2023-02-15T17:25:24.658Z,18.82
2023-02-15T17:27:54.651Z,23.40
2023-02-15T17:30:27.895Z,23.83
2023-02-15T17:32:57.742Z,21.57
2023-02-15T17:35:33.809Z,22.73
2023-02-15T17:38:04.241Z,26.87
2023-02-15T17:40:34.138Z,20.50
2023-02-15T17:43:02.612Z,21.68
2023-02-15T17:45:35.432Z,23.70
2023-02-15T17:48:05.272Z,19.98
2023-02-15T17:50:33.963Z,18.82
2023-02-15T17:53:02.286Z,22.02
2023-02-15T17:55:38.375Z,22.32
2023-02-15T17:58:15.376Z,21.77
2023-02-15T18:01:08.124Z,21.60
2023-02-15T18:03:55.860Z,20.60
2023-02-15T18:06:41.848Z,22.98
2023-02-15T18:09:33.635Z,23.83
2023-02-15T18:12:02.890Z,22.87
2023-02-15T18:14:31.817Z,20.68
2023-02-15T18:17:00.452Z,20.60
2023-02-15T18:19:29.399Z,21.40
2023-02-15T18:21:58.030Z,23.07
2023-02-15T18:24:27.409Z,19.98
2023-02-15T18:26:56.132Z,22.07
2023-02-15T18:29:24.675Z,19.65
2023-02-15T18:31:56.764Z,22.58
2023-02-15T18:34:26.570Z,25.40
2023-02-15T18:36:56.237Z,24.20
2023-02-15T18:39:46.771Z,20.72
2023-02-15T18:42:28.117Z,26.12
2023-02-15T18:45:03.024Z,24.80
2023-02-15T18:47:31.579Z,23.22
2023-02-15T18:50:00.220Z,23.83
2023-02-15T18:52:31.827Z,19.23
2023-02-15T18:55:02.940Z,23.65
2023-02-15T18:57:31.862Z,23.45
2023-02-15T19:00:00.432Z,27.30
2023-02-15T19:02:29.076Z,21.15
2023-02-15T19:04:57.591Z,22.07
2023-02-15T19:07:29.704Z,22.55
2023-02-15T19:10:01.062Z,26.23
2023-02-15T19:12:29.942Z,25.25
2023-02-15T19:14:58.506Z,17.10
2023-02-15T19:17:27.050Z,21.35
2023-02-15T19:19:55.600Z,24.05
2023-02-15T19:22:29.492Z,22.93
2023-02-15T19:25:00.962Z,23.12
2023-02-15T19:27:35.907Z,18.67
2023-02-15T19:30:07.567Z,19.87
2023-02-15T19:32:36.176Z,18.67
2023-02-15T19:35:26.031Z,22.15
2023-02-15T19:37:57.258Z,19.77
2023-02-15T19:40:32.119Z,24.52
2023-02-15T19:43:25.188Z,21.12
2023-02-15T19:45:53.013Z,22.52
2023-02-15T19:48:21.693Z,23.25
2023-02-15T19:50:50.590Z,26.02
2023-02-15T19:53:49.221Z,25.72
